Search for airport 
image banner adimage banner ad
image banner ad

SJDU - Nossa Senhora do Loreto Airport

Located in Uruguaiana, Brazil

ICAO - SJDU, IATA -

Data provided by Airmate  

General information

Coordinates: S29°43'41" W56°57'37"
Elevation is 318 feet MSL.
Magnetic variation is -13° East
Rated:
View ratings: [VIEW]


View others Airports in Rio Grande do Sul

Operational data

Open for public use
Current time UTC:
Current local time:
Weather at : SBUG - Rubem Berta ( 10 km )
TAF: TAF SBUG 031500Z 0318/0406 02010KT CAVOK TX29/0318Z TN13/0406Z RMK PEU
View NOTAMs / SUP AIP / TFR affecting this airport [VIEW]
Communications frequencies: [VIEW]

Runways:

RWY identifierQFULength (ft)Width (ft)SurfaceLDA (ft)
10114859GRASS
28114859GRASS

Airport contact information

Address: Uruguaiana Brazil

Satellite view of SJDU